Time;durP1;ratioP1;P1;durP2;ratioP2;P2;SDS_P1;SDS_P2;PMS_P1;PMS_P2;Temp;Humidity;BMP_temperature;BMP_pressure;BME280_temperature;BME280_humidity;BME280_pressure;Samples;Min_cycle;Max_cycle;Signal;HPM_P1;HPM_P2
2021/11/10 00:02:15;;;;;;;;;;;;;;;19.26;65.69;103102.13;5065145;28;1620;-40
2021/11/10 00:04:42;;;;;;;;;;;;;;;19.28;65.82;103112.78;5065600;28;1552;-41
2021/11/10 00:07:09;;;;;;;;;;;;;;;19.24;65.74;103103.16;5035172;28;1611;-40
2021/11/10 00:09:46;;;;;;;;;;;;;;;19.25;64.73;103097.69;5066599;28;1679;-40
2021/11/10 00:12:16;;;;;;;;;;;;;;;19.27;63.93;103092.25;5063091;28;1832;-40
2021/11/10 00:14:42;;;;;;;;;;;;;;;19.55;63.41;103106.91;5056037;28;1512;-41
2021/11/10 00:17:09;;;;;;;;;;;;;;;19.36;64.55;103099.84;5066066;28;1973;-41
2021/11/10 00:19:35;;;;;;;;;;;;;;;19.35;64.12;103100.78;5062602;28;1785;-40
2021/11/10 00:22:03;;;;;;;;;;;;;;;19.32;64.60;103106.31;5056615;28;1448;-40
2021/11/10 00:24:29;;;;;;;;;;;;;;;19.27;65.74;103103.84;5063986;28;1498;-41
2021/11/10 00:27:05;;;;;;;;;;;;;;;19.24;64.67;103105.84;5061136;28;1549;-40
2021/11/10 00:29:31;;;;;;;;;;;;;;;19.26;65.47;103103.97;5064926;28;1544;-40
2021/11/10 00:32:06;;;;;;;;;;;;;;;19.28;65.04;103110.09;5059919;28;1656;-40
2021/11/10 00:34:32;;;;;;;;;;;;;;;19.24;65.21;103108.53;5060280;28;1801;-40
2021/11/10 00:36:59;;;;;;;;;;;;;;;19.23;64.53;103106.78;5066492;28;1981;-41
2021/11/10 00:39:28;;;;;;;;;;;;;;;19.25;64.37;103118.31;5072611;28;1511;-40
2021/11/10 00:41:54;;;;;;;;;;;;;;;19.22;63.99;103105.06;5065064;28;1769;-40
2021/11/10 00:44:25;;;;;;;;;;;;;;;19.45;62.98;103103.84;5059296;28;1591;-40
2021/11/10 00:46:54;;;;;;;;;;;;;;;19.33;63.65;103089.25;5060615;28;1558;-40
2021/11/10 00:49:20;;;;;;;;;;;;;;;19.32;63.89;103103.63;5069436;28;1671;-40
2021/11/10 00:51:49;;;;;;;;;;;;;;;19.27;64.77;103094.94;5067618;28;1643;-40
2021/11/10 00:54:26;;;;;;;;;;;;;;;19.25;65.32;103094.16;5063539;28;2075;-40
2021/11/10 00:56:55;;;;;;;;;;;;;;;19.26;64.29;103102.13;5058729;28;1930;-41
2021/11/10 00:59:26;;;;;;;;;;;;;;;19.24;65.18;103104.03;5063878;28;1675;-40
2021/11/10 01:01:52;;;;;;;;;;;;;;;19.24;64.96;103100.50;5068107;28;1450;-41
2021/11/10 01:04:28;;;;;;;;;;;;;;;19.26;64.37;103115.56;5062051;28;1757;-41
2021/11/10 01:06:57;;;;;;;;;;;;;;;19.20;65.06;103105.16;5064255;28;1726;-40
2021/11/10 01:09:26;;;;;;;;;;;;;;;19.24;65.27;103097.81;5060432;28;1484;-40
2021/11/10 01:11:53;;;;;;;;;;;;;;;19.42;63.20;103102.19;5059706;28;1605;-41
2021/11/10 01:14:24;;;;;;;;;;;;;;;19.40;63.09;103108.59;5050280;28;1661;-41
2021/11/10 01:16:53;;;;;;;;;;;;;;;19.32;63.71;103098.28;5060660;28;1988;-40
2021/11/10 01:19:20;;;;;;;;;;;;;;;19.28;64.52;103091.34;5056765;28;1421;-41
2021/11/10 01:21:51;;;;;;;;;;;;;;;19.27;64.69;103100.31;5062917;28;1767;-40
2021/11/10 01:24:26;;;;;;;;;;;;;;;19.24;64.96;103108.53;5057225;28;1486;-41
2021/11/10 01:26:55;;;;;;;;;;;;;;;19.21;64.84;103109.53;5060810;28;1574;-41
2021/11/10 01:29:21;;;;;;;;;;;;;;;19.24;64.55;103114.75;5061323;28;1525;-40
2021/11/10 01:31:57;;;;;;;;;;;;;;;19.25;64.68;103115.63;5065225;28;1565;-40
2021/11/10 01:34:23;;;;;;;;;;;;;;;19.23;64.46;103123.75;5061882;28;1637;-41
2021/11/10 01:39:31;;;;;;;;;;;;;;;19.22;64.84;103110.44;5067021;28;2248;-40
2021/11/10 01:42:02;;;;;;;;;;;;;;;19.48;62.45;103120.66;5066224;28;1657;-40
2021/11/10 01:44:30;;;;;;;;;;;;;;;19.36;64.69;103107.00;5062700;28;1507;-40
2021/11/10 01:47:00;;;;;;;;;;;;;;;19.32;64.34;103113.47;5061159;28;1668;-40
2021/11/10 01:49:34;;;;;;;;;;;;;;;19.28;63.10;103112.78;5066951;28;1770;-40
2021/11/10 01:52:05;;;;;;;;;;;;;;;19.25;63.73;103096.84;5066386;28;1601;-40
2021/11/10 01:54:35;;;;;;;;;;;;;;;19.26;63.93;103117.38;5061727;28;1652;-40
2021/11/10 01:57:03;;;;;;;;;;;;;;;19.23;64.24;103112.16;5056302;28;1969;-41
2021/11/10 01:59:37;;;;;;;;;;;;;;;19.20;64.46;103113.19;5064541;28;1707;-40
2021/11/10 02:02:09;;;;;;;;;;;;;;;19.21;63.63;103128.31;5057547;28;1535;-40
2021/11/10 02:04:37;;;;;;;;;;;;;;;19.20;63.76;103126.59;5061592;28;1516;-40
2021/11/10 02:07:04;;;;;;;;;;;;;;;19.21;63.24;103133.69;5060052;28;1699;-40
2021/11/10 02:09:30;;;;;;;;;;;;;;;19.43;62.42;103128.06;5057480;28;1659;-41
2021/11/10 02:12:03;;;;;;;;;;;;;;;19.32;63.66;103111.69;5059264;28;1541;-40
2021/11/10 02:14:37;;;;;;;;;;;;;;;19.30;63.40;103118.06;5062256;28;1547;-40
2021/11/10 02:17:11;;;;;;;;;;;;;;;19.26;63.82;103117.38;5063045;28;2066;-41
2021/11/10 02:19:38;;;;;;;;;;;;;;;19.24;63.55;103116.59;5068340;28;1672;-41
2021/11/10 02:22:06;;;;;;;;;;;;;;;19.20;64.42;103114.97;5057389;28;1701;-40
2021/11/10 02:24:32;;;;;;;;;;;;;;;19.23;64.29;103142.53;5065811;28;1571;-41
2021/11/10 02:27:01;;;;;;;;;;;;;;;19.23;63.19;103120.19;5063931;28;1685;-41
2021/11/10 02:29:37;;;;;;;;;;;;;;;19.24;64.20;103119.28;5067655;28;1548;-40
2021/11/10 02:32:08;;;;;;;;;;;;;;;19.24;63.50;103124.63;5062309;28;1603;-41
2021/11/10 02:34:37;;;;;;;;;;;;;;;19.44;61.55;103115.53;5060907;28;1681;-41
2021/11/10 02:37:06;;;;;;;;;;;;;;;19.33;63.23;103118.75;5054007;28;2116;-41
2021/11/10 02:39:37;;;;;;;;;;;;;;;19.27;63.83;103103.84;5058011;28;1483;-41
2021/11/10 02:42:13;;;;;;;;;;;;;;;19.27;63.05;103111.03;5067631;28;1557;-41
2021/11/10 02:44:40;;;;;;;;;;;;;;;19.24;62.73;103103.16;5067210;28;2471;-41
2021/11/10 02:47:07;;;;;;;;;;;;;;;19.25;62.94;103103.06;5068694;28;1700;-41
2021/11/10 02:49:36;;;;;;;;;;;;;;;19.22;62.61;103105.06;5063857;28;1629;-40
2021/11/10 02:52:09;;;;;;;;;;;;;;;19.23;62.55;103104.97;5065438;28;1729;-40
2021/11/10 02:54:38;;;;;;;;;;;;;;;19.24;64.02;103119.28;5069042;28;1522;-40
2021/11/10 02:57:06;;;;;;;;;;;;;;;19.22;62.91;103115.81;5067216;28;1991;-41
2021/11/10 02:59:35;;;;;;;;;;;;;;;19.25;62.98;103107.56;5069918;28;1453;-40
2021/11/10 03:05:07;;;;;;;;;;;;;;;19.29;63.45;103117.19;5027534;28;1539;-38
2021/11/10 03:07:34;;;;;;;;;;;;;;;19.27;62.50;103105.69;5027677;28;1461;-38
2021/11/10 03:10:16;;;;;;;;;;;;;;;19.24;63.17;103113.91;5030201;28;1499;-38
2021/11/10 03:13:04;;;;;;;;;;;;;;;19.19;64.22;103106.06;5032820;28;1942;-38
2021/11/10 03:15:54;;;;;;;;;;;;;;;19.19;64.26;103124.00;5031673;28;1710;-38
2021/11/10 03:21:06;;;;;;;;;;;;;;;19.18;63.23;103119.56;5031415;28;1616;-38
2021/11/10 03:23:36;;;;;;;;;;;;;;;19.19;63.66;103132.03;5019942;28;1855;-38
2021/11/10 03:28:55;;;;;;;;;;;;;;;19.26;63.22;103123.59;5031839;28;2316;-38
2021/11/10 03:31:34;;;;;;;;;;;;;;;19.24;63.81;103130.84;5014642;28;1592;-38
2021/11/10 03:34:11;;;;;;;;;;;;;;;19.23;62.87;103117.50;5031860;28;1592;-38
2021/11/10 03:36:38;;;;;;;;;;;;;;;19.23;63.94;103114.84;5026205;28;2188;-38
2021/11/10 03:39:08;;;;;;;;;;;;;;;19.20;63.40;103117.66;5030360;28;1902;-38
2021/11/10 03:41:36;;;;;;;;;;;;;;;19.21;62.46;103130.16;5030839;28;1640;-38
2021/11/10 03:44:06;;;;;;;;;;;;;;;19.22;62.70;103139.94;5030466;28;1667;-38
2021/11/10 03:46:42;;;;;;;;;;;;;;;19.19;63.47;103137.41;5031836;28;1833;-38
2021/11/10 03:49:25;;;;;;;;;;;;;;;19.36;62.18;103129.34;5029588;28;1610;-38
2021/11/10 03:51:52;;;;;;;;;;;;;;;19.30;62.47;103137.72;5028685;28;1533;-38
2021/11/10 03:54:20;;;;;;;;;;;;;;;19.26;63.50;103134.31;5031605;28;1776;-38
2021/11/10 03:56:49;;;;;;;;;;;;;;;19.25;63.53;103137.09;5022313;28;1710;-38
2021/11/10 04:01:59;;;;;;;;;;;;;;;19.17;63.08;103133.94;5029770;28;1895;-38
2021/11/10 04:04:33;;;;;;;;;;;;;;;19.17;63.80;103128.56;5024952;28;1490;-38
2021/11/10 04:07:14;;;;;;;;;;;;;;;19.15;63.07;103125.97;5027908;28;1557;-38
2021/11/10 04:09:47;;;;;;;;;;;;;;;19.25;61.58;103145.13;5024491;28;1700;-38
2021/11/10 04:12:22;;;;;;;;;;;;;;;19.35;61.84;103149.06;5028814;28;1512;-38
2021/11/10 04:14:49;;;;;;;;;;;;;;;19.28;62.65;103161.09;5026017;28;1667;-38
2021/11/10 04:17:16;;;;;;;;;;;;;;;19.23;63.41;103157.75;5020862;28;1710;-38
2021/11/10 04:22:27;;;;;;;;;;;;;;;19.16;62.76;103156.31;5019528;28;1567;-38
2021/11/10 04:25:01;;;;;;;;;;;;;;;19.14;63.37;103164.47;5008948;28;1670;-38
2021/11/10 04:30:16;;;;;;;;;;;;;;;19.20;63.28;103165.94;5030573;28;2521;-38
2021/11/10 04:32:45;;;;;;;;;;;;;;;19.22;64.32;103174.81;5021729;28;1734;-38
2021/11/10 04:35:14;;;;;;;;;;;;;;;19.14;63.01;103167.16;5018137;28;1684;-38
2021/11/10 04:37:41;;;;;;;;;;;;;;;19.10;63.81;103170.03;5026443;28;1981;-38
2021/11/10 04:40:10;;;;;;;;;;;;;;;19.13;63.05;103186.84;5026786;28;2887;-38
2021/11/10 04:42:38;;;;;;;;;;;;;;;19.11;63.80;103178.03;5030838;28;1596;-38
2021/11/10 04:45:08;;;;;;;;;;;;;;;19.08;63.34;103183.56;5030805;28;1530;-38
2021/11/10 04:47:47;;;;;;;;;;;;;;;19.06;63.88;103180.09;5030664;28;1422;-38
2021/11/10 04:50:15;;;;;;;;;;;;;;;19.05;64.41;103189.91;5030596;28;1403;-38
2021/11/10 04:55:22;;;;;;;;;;;;;;;19.05;64.32;103179.19;5029900;28;1726;-38
2021/11/10 04:57:58;;;;;;;;;;;;;;;19.20;64.54;103182.94;5028039;28;1918;-38
2021/11/10 05:00:28;;;;;;;;;;;;;;;19.20;64.33;103182.03;5022158;28;1445;-39
2021/11/10 05:05:42;;;;;;;;;;;;;;;19.16;64.05;103181.34;5027835;28;1544;-38
2021/11/10 05:08:10;;;;;;;;;;;;;;;19.22;64.42;103185.53;5031482;28;1561;-38
2021/11/10 05:10:37;;;;;;;;;;;;;;;19.25;64.94;103180.00;5022091;28;1546;-38
2021/11/10 05:16:02;;;;;;;;;;;;;;;19.18;64.31;103198.22;5022537;28;1436;-38
2021/11/10 05:18:29;;;;;;;;;;;;;;;19.25;64.55;103190.72;5025300;28;1906;-38
2021/11/10 05:21:15;;;;;;;;;;;;;;;19.34;64.35;103195.63;5030189;28;1759;-38
2021/11/10 05:23:42;;;;;;;;;;;;;;;19.31;64.46;103182.38;5026882;28;1538;-39
2021/11/10 05:26:09;;;;;;;;;;;;;;;19.25;64.08;103206.81;5027003;28;1533;-38
2021/11/10 05:28:35;;;;;;;;;;;;;;;19.25;64.25;103206.81;5024587;28;1605;-38
2021/11/10 05:31:02;;;;;;;;;;;;;;;19.45;63.79;103193.25;5024483;28;1518;-38
2021/11/10 05:33:28;;;;;;;;;;;;;;;19.41;64.00;103205.09;5026359;28;2763;-38
2021/11/10 05:35:55;;;;;;;;;;;;;;;19.35;64.00;103216.13;5027271;28;1635;-38
2021/11/10 05:38:21;;;;;;;;;;;;;;;19.36;64.79;103225.94;5022760;28;1971;-39
2021/11/10 05:40:49;;;;;;;;;;;;;;;19.42;65.11;103217.56;5018875;28;1746;-38
2021/11/10 05:43:16;;;;;;;;;;;;;;;19.37;63.69;103219.63;5027069;28;1512;-38
2021/11/10 05:45:42;;;;;;;;;;;;;;;19.31;64.58;103214.56;5022738;28;2388;-38
2021/11/10 05:48:09;;;;;;;;;;;;;;;19.37;64.26;103211.56;5024928;28;1743;-39
2021/11/10 05:50:35;;;;;;;;;;;;;;;19.45;64.89;103235.31;5026292;28;1496;-38
2021/11/10 05:53:02;;;;;;;;;;;;;;;19.43;64.63;103226.50;5026615;28;1697;-38
2021/11/10 05:55:29;;;;;;;;;;;;;;;19.42;64.82;103230.13;5024183;28;1562;-38
2021/11/10 05:57:57;;;;;;;;;;;;;;;19.45;64.65;103233.50;5025735;28;1907;-38
2021/11/10 06:00:30;;;;;;;;;;;;;;;19.53;64.72;103243.00;5026800;28;1236;-38
2021/11/10 06:02:57;;;;;;;;;;;;;;;19.52;62.50;103235.88;5024071;28;1411;-38
2021/11/10 06:05:24;;;;;;;;;;;;;;;19.51;64.53;103247.56;5025098;28;1686;-38
2021/11/10 06:07:50;;;;;;;;;;;;;;;19.64;65.20;103251.38;5026244;28;1626;-39
2021/11/10 06:10:18;;;;;;;;;;;;;;;19.61;64.30;103254.19;5026795;28;1586;-38
2021/11/10 06:12:45;;;;;;;;;;;;;;;19.53;63.63;103259.94;5027311;28;1359;-38
2021/11/10 06:15:13;;;;;;;;;;;;;;;19.52;63.56;103257.34;5027104;28;1618;-38
2021/11/10 06:17:40;;;;;;;;;;;;;;;19.62;64.94;103255.94;5025714;28;1536;-39
2021/11/10 06:20:07;;;;;;;;;;;;;;;19.62;65.62;103254.13;5019378;28;1906;-38
2021/11/10 06:22:34;;;;;;;;;;;;;;;19.64;64.46;103272.84;5025400;28;1586;-39
2021/11/10 06:25:01;;;;;;;;;;;;;;;19.67;65.68;103256.56;5026422;28;2122;-38
2021/11/10 06:27:27;;;;;;;;;;;;;;;19.68;64.66;103264.53;5025230;28;1904;-38
2021/11/10 06:29:54;;;;;;;;;;;;;;;19.75;65.86;103258.88;5023530;28;1702;-38
2021/11/10 06:32:21;;;;;;;;;;;;;;;19.73;64.97;103269.69;5025483;28;1776;-38
2021/11/10 06:34:48;;;;;;;;;;;;;;;19.74;66.09;103262.53;5025930;28;1457;-39
2021/11/10 06:37:14;;;;;;;;;;;;;;;19.70;65.22;103251.06;5024668;28;1551;-39
2021/11/10 06:39:41;;;;;;;;;;;;;;;19.86;65.54;103261.88;5026920;28;1906;-38
2021/11/10 06:42:08;;;;;;;;;;;;;;;19.94;66.18;103259.66;5025356;28;1587;-38
2021/11/10 06:44:34;;;;;;;;;;;;;;;19.97;65.64;103266.69;5026367;28;1622;-36
2021/11/10 06:47:00;;;;;;;;;;;;;;;19.86;65.57;103275.31;5025642;28;1548;-38
2021/11/10 06:49:29;;;;;;;;;;;;;;;19.79;66.55;103260.47;5021903;28;1413;-37
2021/11/10 06:51:56;;;;;;;;;;;;;;;19.76;65.96;103256.13;5026139;28;1634;-37
2021/11/10 06:54:23;;;;;;;;;;;;;;;19.86;67.33;103272.63;5010605;28;10741;-38
2021/11/10 06:56:49;;;;;;;;;;;;;;;19.84;66.99;103269.16;4999322;28;2550;-37
2021/11/10 06:59:16;;;;;;;;;;;;;;;19.50;60.17;103278.91;5022914;28;1902;-38
2021/11/10 07:01:43;;;;;;;;;;;;;;;19.53;66.49;103253.72;5020608;28;2161;-38
2021/11/10 07:04:09;;;;;;;;;;;;;;;19.68;65.40;103258.31;5021766;28;2048;-38
2021/11/10 07:06:37;;;;;;;;;;;;;;;19.25;63.77;103249.75;5024056;28;1503;-39
2021/11/10 07:09:05;;;;;;;;;;;;;;;19.45;63.35;103263.03;5023696;28;1856;-38
2021/11/10 07:11:34;;;;;;;;;;;;;;;19.52;64.23;103257.34;5024946;28;1702;-39
2021/11/10 07:14:00;;;;;;;;;;;;;;;19.63;64.89;103254.97;5017652;28;1546;-39
2021/11/10 07:16:27;;;;;;;;;;;;;;;19.65;65.34;103253.09;5020261;28;1718;-38
2021/11/10 07:18:53;;;;;;;;;;;;;;;19.64;65.63;103246.88;5017938;28;2255;-38
2021/11/10 07:21:20;;;;;;;;;;;;;;;19.61;64.68;103273.84;5026923;28;1917;-38
2021/11/10 07:23:47;;;;;;;;;;;;;;;19.73;65.44;103261.66;5028364;28;1874;-39
2021/11/10 07:26:21;;;;;;;;;;;;;;;19.79;64.59;103269.38;5029020;28;1666;-38
2021/11/10 07:28:47;;;;;;;;;;;;;;;19.80;64.57;103265.75;5027163;28;1677;-38
2021/11/10 07:31:14;;;;;;;;;;;;;;;19.77;64.50;103267.72;5030350;28;1510;-38
2021/11/10 07:33:40;;;;;;;;;;;;;;;19.85;64.33;103268.19;5030562;28;1653;-39
2021/11/10 07:36:07;;;;;;;;;;;;;;;20.04;64.33;103254.69;5030131;28;1550;-38
2021/11/10 07:38:39;;;;;;;;;;;;;;;20.09;64.33;103260.66;5027354;28;2254;-38
2021/11/10 07:41:09;;;;;;;;;;;;;;;19.97;64.31;103261.31;5028875;28;2041;-38
2021/11/10 07:43:35;;;;;;;;;;;;;;;19.94;65.77;103265.03;5028147;28;1717;-38
2021/11/10 07:46:06;;;;;;;;;;;;;;;20.11;66.35;103261.44;5029781;28;1956;-38
2021/11/10 07:48:34;;;;;;;;;;;;;;;19.83;64.91;103279.00;5027751;28;1524;-38
2021/11/10 07:51:00;;;;;;;;;;;;;;;19.42;61.07;103265.88;5026613;28;1552;-38
2021/11/10 07:53:27;;;;;;;;;;;;;;;19.23;57.69;103270.41;5030619;28;1597;-38
2021/11/10 07:55:53;;;;;;;;;;;;;;;19.03;59.29;103261.53;5030549;28;1789;-38
2021/11/10 07:58:21;;;;;;;;;;;;;;;19.19;56.12;103260.78;5029694;28;1579;-38
2021/11/10 08:00:48;;;;;;;;;;;;;;;19.05;58.01;103264.16;5023301;28;1906;-38
2021/11/10 08:03:14;;;;;;;;;;;;;;;19.26;60.26;103262.25;5029547;28;1843;-38
2021/11/10 08:05:41;;;;;;;;;;;;;;;19.45;62.69;103252.28;5029602;28;1494;-38
2021/11/10 08:08:07;;;;;;;;;;;;;;;19.75;62.22;103254.38;5025452;28;1669;-38
2021/11/10 08:10:33;;;;;;;;;;;;;;;19.90;61.78;103271.53;5030281;28;1952;-38
2021/11/10 08:13:00;;;;;;;;;;;;;;;19.89;65.84;103263.53;5027960;28;1248;-38
2021/11/10 08:15:28;;;;;;;;;;;;;;;19.81;65.94;103264.78;5029277;28;1724;-38
2021/11/10 08:17:55;;;;;;;;;;;;;;;19.76;66.90;103264.19;5033719;28;1847;-38
2021/11/10 08:20:21;;;;;;;;;;;;;;;19.94;64.07;103278.47;5025764;28;1906;-38
2021/11/10 08:22:48;;;;;;;;;;;;;;;19.88;66.76;103276.09;5028692;28;1582;-38
2021/11/10 08:25:15;;;;;;;;;;;;;;;19.89;66.82;103260.84;5029798;28;2055;-38
2021/11/10 08:27:42;;;;;;;;;;;;;;;19.90;67.08;103281.41;5026166;28;1536;-38
2021/11/10 08:30:10;;;;;;;;;;;;;;;19.96;65.60;103262.28;5029677;28;1551;-38
2021/11/10 08:32:38;;;;;;;;;;;;;;;20.16;64.91;103275.50;5028914;28;1688;-39
2021/11/10 08:35:05;;;;;;;;;;;;;;;20.09;66.61;103281.28;5024353;28;1786;-37
2021/11/10 08:37:31;;;;;;;;;;;;;;;20.12;65.96;103292.75;5030019;28;1743;-37
2021/11/10 08:39:58;;;;;;;;;;;;;;;19.91;68.66;103265.19;5030860;28;1902;-37
2021/11/10 08:42:31;;;;;;;;;;;;;;;19.94;66.61;103273.09;5029876;28;1576;-37
2021/11/10 08:44:59;;;;;;;;;;;;;;;20.23;66.27;103271.56;5028955;28;1500;-37
2021/11/10 08:47:25;;;;;;;;;;;;;;;20.23;66.59;103273.34;5030820;28;1608;-37
2021/11/10 08:50:07;;;;;;;;;;;;;;;20.21;66.48;103278.81;5024701;28;1681;-37
2021/11/10 08:52:35;;;;;;;;;;;;;;;20.14;65.99;103266.66;5026616;28;1843;-37
2021/11/10 08:55:04;;;;;;;;;;;;;;;20.15;65.53;103271.06;5027744;28;1826;-37
2021/11/10 08:57:33;;;;;;;;;;;;;;;20.39;65.63;103276.97;5028146;28;1782;-37
2021/11/10 09:00:02;;;;;;;;;;;;;;;20.38;66.07;103260.91;5029706;28;1981;-37
2021/11/10 09:02:29;;;;;;;;;;;;;;;20.30;67.29;103257.78;5027799;28;1583;-37
2021/11/10 09:04:59;;;;;;;;;;;;;;;20.29;65.71;103259.56;5024953;28;1587;-37
2021/11/10 09:07:29;;;;;;;;;;;;;;;20.33;66.77;103252.22;5009910;28;1634;-37
2021/11/10 09:09:56;;;;;;;;;;;;;;;20.41;65.50;103258.03;5031623;28;1627;-37
2021/11/10 09:12:22;;;;;;;;;;;;;;;20.33;66.77;103265.66;5028147;28;1785;-37
2021/11/10 09:17:34;;;;;;;;;;;;;;;20.36;66.23;103236.81;5024556;28;1535;-37
2021/11/10 09:20:02;;;;;;;;;;;;;;;20.27;65.70;103235.50;5030469;28;1985;-37
2021/11/10 09:22:30;;;;;;;;;;;;;;;20.23;66.34;103236.63;5027215;28;1790;-38
2021/11/10 09:24:59;;;;;;;;;;;;;;;20.49;65.43;103223.53;5029614;28;1564;-37
2021/11/10 09:27:28;;;;;;;;;;;;;;;20.13;65.76;103223.75;5030040;28;1716;-37
2021/11/10 09:29:56;;;;;;;;;;;;;;;20.18;65.14;103230.63;5026834;28;1783;-37
2021/11/10 09:32:30;;;;;;;;;;;;;;;20.17;66.30;103226.19;5030605;28;1686;-37
2021/11/10 09:34:59;;;;;;;;;;;;;;;20.16;65.27;103219.09;5023101;28;1706;-37
2021/11/10 09:37:27;;;;;;;;;;;;;;;20.23;64.31;103223.19;5019824;28;1671;-37
2021/11/10 09:39:55;;;;;;;;;;;;;;;20.15;65.34;103214.66;5031273;28;1902;-38
2021/11/10 09:42:26;;;;;;;;;;;;;;;20.19;65.88;103227.00;5022444;28;1939;-37
2021/11/10 09:45:07;;;;;;;;;;;;;;;20.10;64.92;103221.25;5030465;28;2092;-37
2021/11/10 09:47:34;;;;;;;;;;;;;;;20.03;64.24;103209.94;5027913;28;1929;-37
2021/11/10 09:50:01;;;;;;;;;;;;;;;20.12;64.56;103209.47;5029827;28;1589;-37
2021/11/10 09:52:27;;;;;;;;;;;;;;;20.15;64.50;103203.91;5025840;28;1503;-37
2021/11/10 09:54:55;;;;;;;;;;;;;;;20.05;64.14;103218.78;5029274;28;1356;-37
2021/11/10 09:57:22;;;;;;;;;;;;;;;20.11;65.34;103198.78;5022682;28;1702;-37
2021/11/10 09:59:50;;;;;;;;;;;;;;;20.03;66.13;103196.53;5026907;28;2005;-38
2021/11/10 10:02:19;;;;;;;;;;;;;;;19.96;66.40;103208.56;5027249;28;1521;-37
2021/11/10 10:04:48;;;;;;;;;;;;;;;19.90;64.40;103190.09;5028123;28;1859;-37
2021/11/10 10:07:19;;;;;;;;;;;;;;;19.91;64.02;103186.44;5029348;28;1558;-37
2021/11/10 10:09:47;;;;;;;;;;;;;;;19.78;63.16;103181.75;5031217;28;1620;-37
2021/11/10 10:12:22;;;;;;;;;;;;;;;19.82;64.58;103179.75;5029959;28;1760;-37
2021/11/10 10:14:52;;;;;;;;;;;;;;;19.97;64.83;103170.00;5027696;28;1860;-37
2021/11/10 10:17:33;;;;;;;;;;;;;;;19.77;60.97;103163.03;5029287;28;1738;-37
2021/11/10 10:20:10;;;;;;;;;;;;;;;19.62;61.64;103148.59;5022082;28;1906;-37
2021/11/10 10:22:36;;;;;;;;;;;;;;;19.60;61.70;103174.63;5027588;28;1511;-37
2021/11/10 10:25:03;;;;;;;;;;;;;;;19.59;61.80;103143.38;5032822;28;1401;-37
2021/11/10 10:27:34;;;;;;;;;;;;;;;19.62;61.45;103162.00;5031552;28;2081;-37
2021/11/10 10:30:23;;;;;;;;;;;;;;;19.53;61.49;103141.00;5031376;28;1511;-37
2021/11/10 10:32:53;;;;;;;;;;;;;;;19.53;61.14;103138.31;5032654;28;3030;-37
2021/11/10 10:35:40;;;;;;;;;;;;;;;19.51;61.80;103143.75;5031825;28;1797;-37
2021/11/10 10:38:10;;;;;;;;;;;;;;;19.50;61.39;103131.31;5028272;28;1833;-37
2021/11/10 10:40:42;;;;;;;;;;;;;;;19.47;60.46;103136.81;5027493;28;1898;-37
2021/11/10 10:43:13;;;;;;;;;;;;;;;19.43;60.17;103111.09;5028812;28;1637;-37
2021/11/10 10:45:40;;;;;;;;;;;;;;;19.43;62.35;103133.44;5027478;28;1731;-37
2021/11/10 10:48:09;;;;;;;;;;;;;;;19.43;60.50;103125.38;5026111;28;1456;-37
2021/11/10 10:50:44;;;;;;;;;;;;;;;19.39;60.57;103118.44;5027441;28;1770;-37
2021/11/10 10:53:14;;;;;;;;;;;;;;;19.41;60.08;103115.69;5028348;28;1640;-37
2021/11/10 10:55:49;;;;;;;;;;;;;;;19.38;61.34;103122.09;5019529;28;1665;-37
2021/11/10 10:58:33;;;;;;;;;;;;;;;19.36;60.92;103112.38;5024517;28;1533;-37
2021/11/10 11:01:18;;;;;;;;;;;;;;;19.36;60.68;103115.94;5029103;28;1898;-37
2021/11/10 11:03:51;;;;;;;;;;;;;;;19.32;60.46;103102.75;5033271;28;1538;-37
2021/11/10 11:06:43;;;;;;;;;;;;;;;19.28;59.90;103096.69;5032370;28;1639;-37
2021/11/10 11:09:14;;;;;;;;;;;;;;;19.29;59.26;103109.16;5030269;28;1777;-36
2021/11/10 11:11:46;;;;;;;;;;;;;;;19.28;59.55;103102.06;5022738;28;2310;-37
2021/11/10 11:14:26;;;;;;;;;;;;;;;19.25;59.09;103086.13;5032488;28;1834;-37
2021/11/10 11:17:04;;;;;;;;;;;;;;;19.29;59.28;103101.09;5031419;28;1862;-37
2021/11/10 11:19:37;;;;;;;;;;;;;;;19.24;60.74;103092.44;5030043;28;1856;-37
2021/11/10 11:22:05;;;;;;;;;;;;;;;19.26;58.77;103083.34;5027382;28;1505;-37
2021/11/10 11:24:36;;;;;;;;;;;;;;;19.22;58.73;103083.63;5029893;28;1410;-37
2021/11/10 11:27:23;;;;;;;;;;;;;;;19.21;60.28;103087.22;5029423;28;1887;-37
2021/11/10 11:29:59;;;;;;;;;;;;;;;19.21;58.34;103069.31;5024776;28;1781;-37
2021/11/10 11:32:33;;;;;;;;;;;;;;;19.16;58.78;103076.75;5030379;28;1591;-37
2021/11/10 11:35:02;;;;;;;;;;;;;;;19.16;58.91;103067.81;5029380;28;1524;-37
2021/11/10 11:37:28;;;;;;;;;;;;;;;19.15;58.58;103060.72;5022539;28;2085;-37
2021/11/10 11:39:56;;;;;;;;;;;;;;;19.15;59.08;103055.38;5031643;28;1910;-37
2021/11/10 11:42:26;;;;;;;;;;;;;;;19.12;58.88;103050.16;5030774;28;1833;-37
2021/11/10 11:44:52;;;;;;;;;;;;;;;19.11;58.04;103064.53;5027942;28;1959;-37
2021/11/10 11:47:20;;;;;;;;;;;;;;;19.04;58.91;103043.38;5030988;28;1852;-37
2021/11/10 11:49:47;;;;;;;;;;;;;;;19.07;59.72;103048.56;5030526;28;1534;-37
2021/11/10 11:52:14;;;;;;;;;;;;;;;19.07;58.44;103059.31;5029665;28;1505;-37
2021/11/10 11:54:43;;;;;;;;;;;;;;;19.05;58.17;103045.09;5030705;28;1295;-37
2021/11/10 11:57:11;;;;;;;;;;;;;;;19.05;59.45;103029.03;5029273;28;1656;-37
2021/11/10 11:59:38;;;;;;;;;;;;;;;19.05;59.22;103030.84;5029535;28;1684;-37
2021/11/10 12:04:57;;;;;;;;;;;;;;;19.02;58.27;103042.59;5106837;27;1912;-40
2021/11/10 12:07:45;;;;;;;;;;;;;;;19.02;58.39;103031.88;5099644;28;1692;-39
2021/11/10 12:10:25;;;;;;;;;;;;;;;19.01;58.64;103021.22;5104951;28;1590;-39
2021/11/10 12:12:53;;;;;;;;;;;;;;;19.00;58.65;103036.47;5101790;28;1471;-39
2021/11/10 12:15:19;;;;;;;;;;;;;;;19.00;58.27;103044.50;5096486;28;1582;-39
2021/11/10 12:18:00;;;;;;;;;;;;;;;19.00;57.61;103033.78;5104136;28;1653;-40
2021/11/10 12:20:35;;;;;;;;;;;;;;;18.99;58.72;103034.72;5101166;28;1691;-40
2021/11/10 12:23:03;;;;;;;;;;;;;;;18.96;57.62;103028.63;5096753;28;1913;-39
2021/11/10 12:25:29;;;;;;;;;;;;;;;18.95;57.44;103024.22;5103876;28;1654;-39
2021/11/10 12:27:56;;;;;;;;;;;;;;;18.79;56.78;103019.66;5104770;28;1566;-39
2021/11/10 12:30:23;;;;;;;;;;;;;;;18.83;57.58;103012.31;5105589;28;1343;-39
2021/11/10 12:32:55;;;;;;;;;;;;;;;18.89;57.92;103020.06;5105912;28;1935;-39
2021/11/10 12:35:24;;;;;;;;;;;;;;;18.92;57.22;103014.53;5101155;28;1821;-39
2021/11/10 12:37:54;;;;;;;;;;;;;;;18.90;57.87;103007.50;5103869;28;1553;-39
2021/11/10 12:40:21;;;;;;;;;;;;;;;18.90;57.44;103021.81;5101416;28;1576;-39
2021/11/10 12:42:53;;;;;;;;;;;;;;;18.89;57.38;103006.66;5105936;28;1901;-39
2021/11/10 12:45:22;;;;;;;;;;;;;;;18.90;57.48;103008.41;5099348;28;1412;-39
2021/11/10 12:47:49;;;;;;;;;;;;;;;18.86;58.19;103001.44;5101721;28;1616;-39
2021/11/10 12:50:34;;;;;;;;;;;;;;;18.85;58.05;102997.88;5103084;28;1831;-40
2021/11/10 12:53:03;;;;;;;;;;;;;;;18.84;57.56;103003.31;5103553;28;1972;-39
2021/11/10 12:55:30;;;;;;;;;;;;;;;18.83;57.67;103001.59;5103834;28;1694;-39
2021/11/10 12:57:58;;;;;;;;;;;;;;;18.82;57.76;102989.13;5100829;28;1929;-39
2021/11/10 13:00:25;;;;;;;;;;;;;;;18.83;57.50;102997.09;5105110;28;1632;-39
2021/11/10 13:02:53;;;;;;;;;;;;;;;18.84;57.97;102987.25;5102902;28;1982;-39
2021/11/10 13:05:25;;;;;;;;;;;;;;;18.81;57.80;102987.41;5098461;28;1750;-39
2021/11/10 13:07:59;;;;;;;;;;;;;;;18.80;57.51;102986.56;5102625;28;1622;-39
2021/11/10 13:10:27;;;;;;;;;;;;;;;18.78;57.57;102974.13;5094841;28;1646;-39
2021/11/10 13:12:53;;;;;;;;;;;;;;;18.82;58.23;102978.41;5101863;28;1575;-39
2021/11/10 13:15:21;;;;;;;;;;;;;;;18.80;57.81;102991.03;5094138;28;1632;-39
2021/11/10 13:17:48;;;;;;;;;;;;;;;18.77;57.69;102972.41;5090256;28;1555;-41
2021/11/10 13:20:15;;;;;;;;;;;;;;;18.75;57.88;102972.47;5082052;28;1773;-39
2021/11/10 13:22:43;;;;;;;;;;;;;;;18.74;57.53;102969.88;5085982;28;1592;-39
2021/11/10 13:25:12;;;;;;;;;;;;;;;18.73;56.85;102973.53;5091183;28;1906;-39
2021/11/10 13:27:42;;;;;;;;;;;;;;;18.71;56.70;102970.91;5087762;28;1333;-40
2021/11/10 13:30:10;;;;;;;;;;;;;;;18.73;57.49;102978.88;5088674;28;1629;-39
2021/11/10 13:32:39;;;;;;;;;;;;;;;18.71;57.52;102970.91;5083367;28;1694;-39
2021/11/10 13:35:05;;;;;;;;;;;;;;;18.71;57.24;102964.69;5087009;28;1737;-39